WIMM/MES METAR and TAF weather

Enter ICAO airport designator
Station Type Date Time Source
WIMM METAR 2021/08/02 02:30 UTC NOAA

WIMM 020230Z 11002KT 6000 FEW017CB SCT018 27/25 Q1011 NOSIG RMK CB TO NE


Station Type Date Time Source
WIMM Decoded METAR 2021/08/02 02:30 UTC NOAA

Medan / Polonia, Indonesia (WIMM) 03-34N 098-41E 25M
Aug 01, 2021 - 10:30 PM EDT / 2021.08.02 0230 UTC
Wind: from the ESE (110 degrees) at 2 MPH (2 KT):0
Visibility: 3 mile(s):0
Sky conditions: partly cloudy
Weather: Cumulonimbus clouds observed
Temperature: 80 F (27 C)
Dew Point: 77 F (25 C)
Relative Humidity: 88%
Pressure (altimeter): 29.85 in. Hg (1011 hPa)
ob: WIMM 020230Z 11002KT 6000 FEW017CB SCT018 27/25 Q1011 NOSIG RMK CB TO NE
cycle: 2

Station Type Date Time Source
WIMM TAF 2021/08/01 18:12 UTC NOAA

TAF WIMM 011700Z 0118/0218 VRB04KT 4000 BR SCT017
BECMG 0204/0206 04010KT 9999 NSW
BECMG 0211/0213 VRB04KT 5000 HZ

Example: see airport list